createdAt,value
2023-04-07T00:03:02.116Z,1009.99
2023-04-07T00:06:09.327Z,1010.00
2023-04-07T00:09:17.278Z,1009.99
2023-04-07T00:12:26.341Z,1009.94
2023-04-07T00:15:33.999Z,1009.83
2023-04-07T00:18:42.165Z,1009.90
2023-04-07T00:21:51.272Z,1009.90
2023-04-07T00:24:55.683Z,1009.90
2023-04-07T00:28:03.392Z,1009.85
2023-04-07T00:31:12.357Z,1009.81
2023-04-07T00:34:20.471Z,1009.77
2023-04-07T00:37:28.086Z,1009.79
2023-04-07T00:40:35.925Z,1009.75
2023-04-07T00:43:45.386Z,1009.79
2023-04-07T00:46:52.785Z,1009.75
2023-04-07T00:50:00.782Z,1009.69
2023-04-07T00:53:09.757Z,1009.73
2023-04-07T00:56:17.528Z,1009.67
2023-04-07T00:59:25.071Z,1009.63
2023-04-07T01:02:34.718Z,1009.60
2023-04-07T01:05:42.030Z,1009.60
2023-04-07T01:08:50.096Z,1009.60
2023-04-07T01:11:59.144Z,1009.48
2023-04-07T01:15:06.504Z,1009.56
2023-04-07T01:18:14.528Z,1009.52
2023-04-07T01:21:23.333Z,1009.51
2023-04-07T01:24:30.946Z,1009.56
2023-04-07T01:27:38.478Z,1009.52
2023-04-07T01:30:46.156Z,1009.43
2023-04-07T01:33:55.563Z,1009.44
2023-04-07T01:37:03.436Z,1009.50
2023-04-07T01:40:11.353Z,1009.53
2023-04-07T01:43:20.272Z,1009.55
2023-04-07T01:46:28.118Z,1009.53
2023-04-07T01:49:36.039Z,1009.53
2023-04-07T01:52:44.673Z,1009.54
2023-04-07T01:55:52.570Z,1009.61
2023-04-07T01:59:00.444Z,1009.65
2023-04-07T02:02:09.183Z,1009.60
2023-04-07T02:05:17.141Z,1009.67
2023-04-07T02:08:24.730Z,1009.73
2023-04-07T02:11:32.184Z,1009.69
2023-04-07T02:14:41.361Z,1009.66
2023-04-07T02:17:49.228Z,1009.66
2023-04-07T02:20:56.951Z,1009.65
2023-04-07T02:24:05.702Z,1009.67
2023-04-07T02:27:13.560Z,1009.58
2023-04-07T02:30:21.236Z,1009.55
2023-04-07T02:33:30.206Z,1009.53
2023-04-07T02:36:37.949Z,1009.53
2023-04-07T02:39:45.487Z,1009.58
2023-04-07T02:42:54.622Z,1009.58
2023-04-07T02:46:02.453Z,1009.60
2023-04-07T02:49:09.750Z,1009.59
2023-04-07T02:52:18.336Z,1009.64
2023-04-07T02:55:27.516Z,1009.60
2023-04-07T02:58:34.833Z,1009.65
2023-04-07T03:01:42.413Z,1009.60
2023-04-07T03:04:51.273Z,1009.63
2023-04-07T03:07:59.083Z,1009.58
2023-04-07T03:11:06.934Z,1009.59
2023-04-07T03:14:15.828Z,1009.61
2023-04-07T03:17:23.497Z,1009.51
2023-04-07T03:20:31.621Z,1009.53
2023-04-07T03:23:40.720Z,1009.58
2023-04-07T03:26:48.350Z,1009.57
2023-04-07T03:29:55.865Z,1009.59
2023-04-07T03:33:05.205Z,1009.54
2023-04-07T03:36:12.666Z,1009.57
2023-04-07T03:39:20.367Z,1009.56
2023-04-07T03:42:28.591Z,1009.56
2023-04-07T03:45:37.975Z,1009.51
2023-04-07T03:48:46.554Z,1009.62
2023-04-07T03:51:54.792Z,1009.56
2023-04-07T03:55:03.997Z,1009.48
2023-04-07T03:58:11.748Z,1009.49
2023-04-07T04:01:19.785Z,1009.52
2023-04-07T04:04:29.073Z,1009.56
2023-04-07T04:07:37.000Z,1009.53
2023-04-07T04:10:44.975Z,1009.55
2023-04-07T04:13:54.250Z,1009.59
2023-04-07T04:17:02.328Z,1009.64
2023-04-07T04:20:03.236Z,1009.66
2023-04-07T04:23:10.753Z,1009.63
2023-04-07T04:26:19.718Z,1009.72
2023-04-07T04:29:27.403Z,1009.71
2023-04-07T04:32:35.657Z,1009.75
2023-04-07T04:35:45.003Z,1009.77
2023-04-07T04:38:52.467Z,1009.87
2023-04-07T04:42:00.460Z,1009.80
2023-04-07T04:45:09.810Z,1009.77
2023-04-07T04:48:17.806Z,1009.79
2023-04-07T04:51:25.898Z,1009.78
2023-04-07T04:54:35.058Z,1009.82
2023-04-07T04:57:42.706Z,1009.90
2023-04-07T05:00:50.788Z,1009.89
2023-04-07T05:03:58.640Z,1009.91
2023-04-07T05:07:08.784Z,1009.94
2023-04-07T05:10:17.291Z,1009.90
2023-04-07T05:13:24.776Z,1009.94
2023-04-07T05:16:34.481Z,1009.97
2023-04-07T05:19:42.446Z,1009.97
2023-04-07T05:22:51.335Z,1010.00
2023-04-07T05:26:01.312Z,1010.01
2023-04-07T05:29:08.929Z,1010.05
2023-04-07T05:32:16.275Z,1010.07
2023-04-07T05:35:25.358Z,1010.09
2023-04-07T05:38:32.946Z,1010.10
2023-04-07T05:41:41.349Z,1010.04
2023-04-07T05:44:50.780Z,1010.10
2023-04-07T05:47:58.536Z,1010.13
2023-04-07T05:51:06.309Z,1010.11
2023-04-07T05:54:14.423Z,1010.24
2023-04-07T05:57:23.252Z,1010.23
2023-04-07T06:00:30.822Z,1010.26
2023-04-07T06:03:38.742Z,1010.21
2023-04-07T06:06:48.181Z,1010.23
2023-04-07T06:09:56.036Z,1010.25
2023-04-07T06:13:03.770Z,1010.26
2023-04-07T06:16:13.461Z,1010.18
2023-04-07T06:19:21.338Z,1010.25
2023-04-07T06:22:28.894Z,1010.20
2023-04-07T06:25:38.377Z,1010.19
2023-04-07T06:28:46.060Z,1010.22
2023-04-07T06:31:53.879Z,1010.34
2023-04-07T06:35:01.910Z,1010.36
2023-04-07T06:38:10.865Z,1010.39
2023-04-07T06:41:18.739Z,1010.36
2023-04-07T06:44:27.034Z,1010.38
2023-04-07T06:47:36.170Z,1010.45
2023-04-07T06:50:45.014Z,1010.38
2023-04-07T06:53:53.435Z,1010.42
2023-04-07T06:57:02.534Z,1010.44
2023-04-07T07:00:10.388Z,1010.49
2023-04-07T07:03:18.497Z,1010.55
2023-04-07T07:06:27.631Z,1010.49
2023-04-07T07:09:35.417Z,1010.51
2023-04-07T07:12:43.051Z,1010.49
2023-04-07T07:15:52.854Z,1010.54
2023-04-07T07:19:00.570Z,1010.54
2023-04-07T07:22:08.317Z,1010.63
2023-04-07T07:25:16.326Z,1010.66
2023-04-07T07:28:25.346Z,1010.60
2023-04-07T07:31:32.936Z,1010.59
2023-04-07T07:34:40.941Z,1010.60
2023-04-07T07:37:50.270Z,1010.66
2023-04-07T07:40:57.587Z,1010.68
2023-04-07T07:44:05.405Z,1010.71
2023-04-07T07:47:14.889Z,1010.71
2023-04-07T07:50:22.283Z,1010.67
2023-04-07T07:53:30.226Z,1010.79
2023-04-07T07:56:39.229Z,1010.72
2023-04-07T07:59:46.839Z,1010.82
2023-04-07T08:02:55.277Z,1010.78
2023-04-07T08:06:02.863Z,1010.78
2023-04-07T08:09:11.738Z,1010.79
2023-04-07T08:12:19.832Z,1010.88
2023-04-07T08:15:27.817Z,1010.88
2023-04-07T08:18:36.715Z,1010.89
2023-04-07T08:21:44.973Z,1010.95
2023-04-07T08:24:52.982Z,1010.89
2023-04-07T08:28:02.204Z,1010.95
2023-04-07T08:31:09.968Z,1010.98
2023-04-07T08:34:18.056Z,1010.94
2023-04-07T08:37:27.042Z,1011.07
2023-04-07T08:40:35.112Z,1011.04
2023-04-07T08:43:43.296Z,1011.13
2023-04-07T08:46:51.440Z,1011.11
2023-04-07T08:50:00.442Z,1011.04
2023-04-07T08:53:08.721Z,1011.05
2023-04-07T08:56:15.993Z,1011.02
2023-04-07T08:59:25.582Z,1011.01
2023-04-07T09:02:33.838Z,1011.11
2023-04-07T09:05:41.474Z,1011.10
2023-04-07T09:08:50.931Z,1011.07
2023-04-07T09:11:58.899Z,1011.08
2023-04-07T09:15:06.468Z,1011.14
2023-04-07T09:18:16.089Z,1011.14
2023-04-07T09:21:23.782Z,1011.17
2023-04-07T09:24:32.058Z,1011.19
2023-04-07T09:27:41.343Z,1011.13
2023-04-07T09:30:49.114Z,1011.10
2023-04-07T09:33:57.422Z,1011.10
2023-04-07T09:37:05.079Z,1011.08
2023-04-07T09:40:14.474Z,1011.07
2023-04-07T09:43:22.387Z,1011.04
2023-04-07T09:46:30.109Z,1011.04
2023-04-07T09:49:39.140Z,1011.06
2023-04-07T09:52:47.120Z,1011.13
2023-04-07T09:55:54.596Z,1011.11
2023-04-07T09:59:03.495Z,1011.04
2023-04-07T10:02:11.435Z,1011.07
2023-04-07T10:05:18.794Z,1011.11
2023-04-07T10:08:28.433Z,1011.11
2023-04-07T10:11:36.394Z,1011.18
2023-04-07T10:14:43.629Z,1011.04
2023-04-07T10:17:51.305Z,1011.14
2023-04-07T10:21:00.356Z,1011.10
2023-04-07T10:24:07.928Z,1011.11
2023-04-07T10:27:15.814Z,1011.04
2023-04-07T10:30:24.474Z,1011.05
2023-04-07T10:33:32.316Z,1011.02
2023-04-07T10:36:40.330Z,1011.06
2023-04-07T10:39:49.226Z,1010.92
2023-04-07T10:42:56.787Z,1011.00
2023-04-07T10:46:04.434Z,1010.97
2023-04-07T10:49:14.704Z,1010.94
2023-04-07T10:52:23.306Z,1010.92
2023-04-07T10:55:30.619Z,1010.91
2023-04-07T10:58:38.696Z,1010.95
2023-04-07T11:01:47.780Z,1010.99
2023-04-07T11:04:55.096Z,1010.92
2023-04-07T11:08:03.221Z,1010.91
2023-04-07T11:11:12.490Z,1010.93
2023-04-07T11:14:20.260Z,1010.95
2023-04-07T11:17:28.590Z,1010.92
2023-04-07T11:20:37.407Z,1010.88
2023-04-07T11:23:46.032Z,1010.91
2023-04-07T11:26:54.381Z,1010.82
2023-04-07T11:30:03.373Z,1010.93
2023-04-07T11:33:11.782Z,1010.90
2023-04-07T11:36:20.058Z,1010.91
2023-04-07T11:39:28.978Z,1010.88
2023-04-07T11:42:37.026Z,1010.85
2023-04-07T11:45:44.904Z,1010.83
2023-04-07T11:48:52.128Z,1010.91
2023-04-07T11:52:01.332Z,1010.90
2023-04-07T11:55:08.938Z,1010.91
2023-04-07T11:58:16.457Z,1010.90
2023-04-07T12:01:25.694Z,1010.86
2023-04-07T12:04:33.012Z,1010.83
2023-04-07T12:07:40.895Z,1010.84
2023-04-07T12:10:50.032Z,1010.83
2023-04-07T12:13:58.149Z,1010.80
2023-04-07T12:17:05.720Z,1010.88
2023-04-07T12:20:14.468Z,1010.85
2023-04-07T12:23:22.516Z,1010.86
2023-04-07T12:26:30.366Z,1010.87
2023-04-07T12:29:38.138Z,1010.82
2023-04-07T12:32:47.400Z,1010.83
2023-04-07T12:35:54.713Z,1010.85
2023-04-07T12:39:02.832Z,1010.81
2023-04-07T12:42:12.223Z,1010.82
2023-04-07T12:45:12.680Z,1010.86
2023-04-07T12:48:20.579Z,1010.81
2023-04-07T12:51:29.698Z,1010.81
2023-04-07T12:54:36.952Z,1010.85
2023-04-07T12:57:44.877Z,1010.83
2023-04-07T13:00:54.316Z,1010.67
2023-04-07T13:04:01.574Z,1010.81
2023-04-07T13:07:09.204Z,1010.70
2023-04-07T13:10:17.305Z,1010.66
2023-04-07T13:13:25.944Z,1010.74
2023-04-07T13:16:34.056Z,1010.67
2023-04-07T13:19:41.671Z,1010.63
2023-04-07T13:23:02.903Z,1010.69
2023-04-07T13:25:55.927Z,1010.69
2023-04-07T13:29:03.647Z,1010.71
2023-04-07T13:32:12.704Z,1010.72
2023-04-07T13:35:20.348Z,1010.71
2023-04-07T13:38:28.233Z,1010.66
2023-04-07T13:41:37.088Z,1010.68
2023-04-07T13:44:44.676Z,1010.70
2023-04-07T13:51:00.256Z,1010.60
2023-04-07T13:54:09.222Z,1010.61
2023-04-07T13:57:17.177Z,1010.63
2023-04-07T14:00:24.924Z,1010.53
2023-04-07T14:03:34.149Z,1010.58
2023-04-07T14:06:41.891Z,1010.54
2023-04-07T14:09:49.180Z,1010.53
2023-04-07T14:12:58.568Z,1010.48
2023-04-07T14:16:06.379Z,1010.52
2023-04-07T14:19:13.460Z,1010.53
2023-04-07T14:22:23.009Z,1010.54
2023-04-07T14:25:30.882Z,1010.66
2023-04-07T14:28:38.234Z,1010.60
2023-04-07T14:31:47.340Z,1010.51
2023-04-07T14:34:55.013Z,1010.58
2023-04-07T14:38:02.753Z,1010.59
2023-04-07T14:41:10.721Z,1010.67
2023-04-07T14:44:19.609Z,1010.65
2023-04-07T14:47:27.215Z,1010.69
2023-04-07T14:50:35.167Z,1010.67
2023-04-07T14:53:44.244Z,1010.73
2023-04-07T14:56:51.889Z,1010.69
2023-04-07T15:00:00.041Z,1010.65
2023-04-07T15:03:09.226Z,1010.69
2023-04-07T15:06:16.936Z,1010.66
2023-04-07T15:09:24.456Z,1010.73
2023-04-07T15:12:33.723Z,1010.72
2023-04-07T15:15:41.476Z,1010.69
2023-04-07T15:18:48.786Z,1010.76
2023-04-07T15:21:56.600Z,1010.76
2023-04-07T15:25:05.164Z,1010.78
2023-04-07T15:28:13.049Z,1010.82
2023-04-07T15:31:20.969Z,1010.79
2023-04-07T15:34:29.608Z,1010.85
2023-04-07T15:37:37.573Z,1010.79
2023-04-07T15:40:45.459Z,1010.78
2023-04-07T15:43:54.201Z,1010.86
2023-04-07T15:47:02.326Z,1010.85
2023-04-07T15:50:10.083Z,1010.86
2023-04-07T15:53:18.737Z,1010.88
2023-04-07T15:56:26.685Z,1010.80
2023-04-07T15:59:34.708Z,1010.80
2023-04-07T16:02:42.198Z,1010.84
2023-04-07T16:05:51.573Z,1011.00
2023-04-07T16:08:59.201Z,1011.01
2023-04-07T16:12:06.854Z,1011.06
2023-04-07T16:15:22.628Z,1011.10
2023-04-07T16:18:20.833Z,1011.15
2023-04-07T16:21:28.538Z,1011.24
2023-04-07T16:24:38.085Z,1011.28
2023-04-07T16:27:45.676Z,1011.28
2023-04-07T16:30:53.395Z,1011.34
2023-04-07T16:34:02.613Z,1011.38
2023-04-07T16:37:10.528Z,1011.38
2023-04-07T16:40:18.132Z,1011.46
2023-04-07T16:43:25.918Z,1011.52
2023-04-07T16:46:35.314Z,1011.58
2023-04-07T16:49:43.220Z,1011.59
2023-04-07T16:52:50.589Z,1011.63
2023-04-07T16:56:00.208Z,1011.66
2023-04-07T16:59:07.603Z,1011.74
2023-04-07T17:02:15.726Z,1011.83
2023-04-07T17:05:25.606Z,1011.85
2023-04-07T17:08:33.227Z,1011.90
2023-04-07T17:11:41.026Z,1011.88
2023-04-07T17:14:50.447Z,1011.95
2023-04-07T17:17:58.752Z,1011.97
2023-04-07T17:21:06.475Z,1011.97
2023-04-07T17:24:15.936Z,1012.00
2023-04-07T17:27:24.221Z,1012.09
2023-04-07T17:30:31.931Z,1012.15
2023-04-07T17:33:40.063Z,1012.17
2023-04-07T17:36:51.242Z,1012.24
2023-04-07T17:39:59.245Z,1012.30
2023-04-07T17:43:06.918Z,1012.26
2023-04-07T17:46:16.196Z,1012.30
2023-04-07T17:49:24.002Z,1012.43
2023-04-07T17:52:31.818Z,1012.45
2023-04-07T17:55:41.172Z,1012.40
2023-04-07T17:58:49.010Z,1012.51
2023-04-07T18:01:56.783Z,1012.55
2023-04-07T18:05:06.128Z,1012.67
2023-04-07T18:08:13.605Z,1012.68
2023-04-07T18:11:21.760Z,1012.66
2023-04-07T18:14:29.469Z,1012.77
2023-04-07T18:17:38.319Z,1012.83
2023-04-07T18:20:46.694Z,1012.83
2023-04-07T18:23:54.575Z,1012.88
2023-04-07T18:27:03.738Z,1012.90
2023-04-07T18:30:11.858Z,1012.91
2023-04-07T18:33:12.035Z,1013.00
2023-04-07T18:36:21.360Z,1013.11
2023-04-07T18:39:29.323Z,1013.09
2023-04-07T18:42:36.688Z,1013.15
2023-04-07T18:45:45.895Z,1013.18
2023-04-07T18:48:53.541Z,1013.23
2023-04-07T18:52:02.084Z,1013.30
2023-04-07T18:55:10.542Z,1013.36
2023-04-07T18:58:19.670Z,1013.43
2023-04-07T19:01:27.732Z,1013.47
2023-04-07T19:04:35.464Z,1013.54
2023-04-07T19:07:44.317Z,1013.59
2023-04-07T19:10:52.570Z,1013.58
2023-04-07T19:14:00.223Z,1013.61
2023-04-07T19:17:09.328Z,1013.67
2023-04-07T19:20:17.078Z,1013.74
2023-04-07T19:23:24.653Z,1013.68
2023-04-07T19:26:33.792Z,1013.77
2023-04-07T19:29:41.663Z,1013.81
2023-04-07T19:32:49.739Z,1013.82
2023-04-07T19:35:58.718Z,1013.91
2023-04-07T19:39:06.496Z,1013.96
2023-04-07T19:42:13.857Z,1013.92
2023-04-07T19:45:21.546Z,1013.95
2023-04-07T19:48:30.628Z,1013.98
2023-04-07T19:51:38.022Z,1013.97
2023-04-07T19:54:46.429Z,1014.01
2023-04-07T19:57:56.232Z,1014.04
2023-04-07T20:01:03.574Z,1014.05
2023-04-07T20:04:11.503Z,1014.10
2023-04-07T20:07:20.504Z,1014.12
2023-04-07T20:10:28.351Z,1014.17
2023-04-07T20:13:36.420Z,1014.14
2023-04-07T20:16:45.159Z,1014.16
2023-04-07T20:19:53.174Z,1014.19
2023-04-07T20:23:01.467Z,1014.23
2023-04-07T20:26:08.634Z,1014.23
2023-04-07T20:29:19.024Z,1014.20
2023-04-07T20:32:28.343Z,1014.26
2023-04-07T20:35:35.914Z,1014.24
2023-04-07T20:38:45.148Z,1014.29
2023-04-07T20:41:53.075Z,1014.30
2023-04-07T20:45:01.093Z,1014.28
2023-04-07T20:48:10.280Z,1014.31
2023-04-07T20:51:17.970Z,1014.31
2023-04-07T20:54:25.782Z,1014.29
2023-04-07T20:57:36.374Z,1014.33
2023-04-07T21:00:44.152Z,1014.29
2023-04-07T21:03:52.284Z,1014.33
2023-04-07T21:06:59.854Z,1014.38
2023-04-07T21:10:09.109Z,1014.38
2023-04-07T21:13:17.307Z,1014.44
2023-04-07T21:16:24.805Z,1014.37
2023-04-07T21:19:34.190Z,1014.42
2023-04-07T21:22:42.082Z,1014.45
2023-04-07T21:25:49.228Z,1014.45
2023-04-07T21:28:58.499Z,1014.48
2023-04-07T21:32:06.462Z,1014.50
2023-04-07T21:35:13.616Z,1014.46
2023-04-07T21:38:22.980Z,1014.44
2023-04-07T21:41:30.539Z,1014.45
2023-04-07T21:44:38.220Z,1014.52
2023-04-07T21:47:46.095Z,1014.54
2023-04-07T21:50:55.125Z,1014.57
2023-04-07T21:54:02.716Z,1014.56
2023-04-07T21:57:10.674Z,1014.62
2023-04-07T22:00:19.849Z,1014.60
2023-04-07T22:03:28.116Z,1014.58
2023-04-07T22:06:36.122Z,1014.67
2023-04-07T22:09:45.010Z,1014.68
2023-04-07T22:12:52.548Z,1014.64
2023-04-07T22:16:00.186Z,1014.63
2023-04-07T22:19:09.256Z,1014.65
2023-04-07T22:22:16.462Z,1014.64
2023-04-07T22:25:23.913Z,1014.63
2023-04-07T22:28:33.469Z,1014.67
2023-04-07T22:31:41.581Z,1014.62
2023-04-07T22:34:49.191Z,1014.65
2023-04-07T22:37:57.275Z,1014.65
2023-04-07T22:41:05.869Z,1014.66
2023-04-07T22:44:13.714Z,1014.70
2023-04-07T22:47:21.863Z,1014.65
2023-04-07T22:50:30.602Z,1014.74
2023-04-07T22:53:38.512Z,1014.69
2023-04-07T22:56:46.415Z,1014.68
2023-04-07T22:59:55.127Z,1014.75
2023-04-07T23:03:03.076Z,1014.74
2023-04-07T23:06:10.969Z,1014.77
2023-04-07T23:09:19.543Z,1014.78
2023-04-07T23:12:27.865Z,1014.71
2023-04-07T23:15:35.353Z,1014.73
2023-04-07T23:18:43.085Z,1014.63
2023-04-07T23:21:52.582Z,1014.66
2023-04-07T23:25:00.138Z,1014.66
2023-04-07T23:28:07.670Z,1014.69
2023-04-07T23:31:16.685Z,1014.70
2023-04-07T23:34:24.148Z,1014.68
2023-04-07T23:37:31.744Z,1014.72
2023-04-07T23:40:40.969Z,1014.61
2023-04-07T23:43:48.510Z,1014.69
2023-04-07T23:46:56.294Z,1014.74
2023-04-07T23:50:05.768Z,1014.70
2023-04-07T23:53:13.217Z,1014.67
2023-04-07T23:56:20.839Z,1014.70
2023-04-07T23:59:29.902Z,1014.69
